Time;durP1;ratioP1;P1;durP2;ratioP2;P2;SDS_P1;SDS_P2;PMS_P1;PMS_P2;Temp;Humidity;BMP_temperature;BMP_pressure;BME280_temperature;BME280_humidity;BME280_pressure;Samples;Min_cycle;Max_cycle;Signal;HPM_P1;HPM_P2
2023/03/18 00:00:46;;;;;;;2.17;1.27;;;14.60;27.40;;;;;;5030362;28;20447;-67
2023/03/18 00:03:12;;;;;;;2.30;1.50;;;14.60;28.30;;;;;;5032725;28;20427;-67
2023/03/18 00:05:38;;;;;;;2.80;1.60;;;14.40;28.20;;;;;;5032217;28;20180;-67
2023/03/18 00:08:05;;;;;;;2.10;1.30;;;14.40;28.50;;;;;;5030961;28;20456;-68
2023/03/18 00:10:33;;;;;;;2.53;1.50;;;14.50;27.60;;;;;;5032624;28;20441;-66
2023/03/18 00:13:00;;;;;;;2.10;1.30;;;14.30;28.30;;;;;;5031598;28;20440;-67
2023/03/18 00:15:26;;;;;;;2.00;1.20;;;14.10;29.50;;;;;;5032284;28;20522;-66
2023/03/18 00:17:52;;;;;;;2.50;1.50;;;14.00;29.10;;;;;;5031208;28;20486;-67
2023/03/18 00:20:27;;;;;;;2.10;1.20;;;14.20;28.40;;;;;;5031190;28;20440;-66
2023/03/18 00:22:56;;;;;;;2.20;1.30;;;14.40;28.40;;;;;;5031031;28;20607;-66
2023/03/18 00:25:22;;;;;;;2.57;1.73;;;14.10;28.90;;;;;;5031153;28;20432;-66
2023/03/18 00:27:47;;;;;;;2.20;1.30;;;14.40;28.00;;;;;;5031428;28;20961;-67
2023/03/18 00:30:13;;;;;;;2.30;1.40;;;14.30;28.50;;;;;;5031812;28;20431;-66
2023/03/18 00:32:40;;;;;;;2.20;1.37;;;14.40;27.90;;;;;;5030215;28;20184;-66
2023/03/18 00:35:06;;;;;;;2.20;1.40;;;14.50;27.80;;;;;;5031510;28;20477;-67
2023/03/18 00:37:33;;;;;;;2.30;1.40;;;14.10;28.60;;;;;;5030906;28;20511;-66
2023/03/18 00:40:06;;;;;;;2.10;1.30;;;14.20;28.30;;;;;;5029810;28;20185;-66
2023/03/18 00:42:46;;;;;;;2.30;1.40;;;14.00;28.40;;;;;;5029926;28;20522;-66
2023/03/18 00:45:14;;;;;;;2.20;1.40;;;14.10;28.40;;;;;;5031919;28;20463;-67
2023/03/18 00:47:41;;;;;;;2.63;1.60;;;14.10;28.00;;;;;;5032529;28;20451;-67
2023/03/18 00:50:09;;;;;;;4.80;2.60;;;14.20;29.00;;;;;;5030512;28;20433;-66
2023/03/18 00:52:36;;;;;;;2.00;1.20;;;14.10;28.40;;;;;;5030122;28;20506;-68
2023/03/18 00:55:02;;;;;;;2.00;1.20;;;14.20;28.30;;;;;;5028656;28;20435;-66
2023/03/18 00:57:28;;;;;;;2.10;1.20;;;14.00;30.00;;;;;;5032016;28;20471;-66
2023/03/18 00:59:55;;;;;;;2.07;1.20;;;14.10;28.40;;;;;;5030748;28;20440;-66
2023/03/18 01:02:22;;;;;;;2.73;1.63;;;14.00;29.70;;;;;;5030334;28;20467;-67
2023/03/18 01:04:49;;;;;;;2.20;1.50;;;14.10;28.80;;;;;;5020922;28;20431;-66
2023/03/18 01:07:15;;;;;;;2.00;1.20;;;14.00;29.20;;;;;;5029555;28;20469;-67
2023/03/18 01:09:42;;;;;;;2.10;1.27;;;13.40;29.50;;;;;;5027406;28;20440;-66
2023/03/18 01:12:09;;;;;;;2.33;1.50;;;13.50;29.60;;;;;;5025110;28;20508;-66
2023/03/18 01:14:39;;;;;;;2.00;1.20;;;13.40;30.80;;;;;;5028356;28;20790;-66
2023/03/18 01:17:06;;;;;;;2.10;1.30;;;13.90;28.80;;;;;;5024855;28;20510;-67
2023/03/18 01:19:33;;;;;;;2.30;1.50;;;14.10;29.20;;;;;;5030947;28;20449;-67
2023/03/18 01:21:59;;;;;;;2.03;1.20;;;14.20;29.30;;;;;;5028529;28;20463;-66
2023/03/18 01:24:25;;;;;;;1.90;1.10;;;13.80;30.20;;;;;;5030731;28;20432;-67
2023/03/18 01:26:51;;;;;;;2.10;1.30;;;14.00;29.00;;;;;;5030821;28;20431;-67
2023/03/18 01:29:17;;;;;;;3.43;1.70;;;13.90;29.70;;;;;;5029872;28;20518;-67
2023/03/18 01:31:44;;;;;;;2.30;1.40;;;14.10;28.40;;;;;;5031794;28;20169;-66
2023/03/18 01:34:09;;;;;;;6.33;1.53;;;13.90;29.60;;;;;;5028236;28;20986;-66
2023/03/18 01:36:35;;;;;;;2.17;1.30;;;13.80;28.70;;;;;;5030490;28;20511;-66
2023/03/18 01:39:01;;;;;;;2.17;1.33;;;13.80;29.70;;;;;;5028767;28;20181;-66
2023/03/18 01:41:27;;;;;;;2.00;1.20;;;14.00;28.90;;;;;;5030370;28;20204;-66
2023/03/18 01:43:56;;;;;;;2.00;1.20;;;13.80;28.80;;;;;;5029227;28;20467;-67
2023/03/18 01:46:38;;;;;;;2.10;1.20;;;14.00;28.60;;;;;;5031086;28;20181;-66
2023/03/18 01:49:09;;;;;;;2.00;1.20;;;14.00;28.80;;;;;;5029926;28;20483;-66
2023/03/18 01:51:36;;;;;;;2.17;1.37;;;14.00;28.80;;;;;;5030770;28;20431;-66
2023/03/18 01:54:05;;;;;;;2.00;1.20;;;13.70;30.40;;;;;;5028387;28;20461;-66
2023/03/18 01:56:35;;;;;;;2.00;1.20;;;13.90;29.20;;;;;;5028581;28;20852;-66
2023/03/18 01:59:01;;;;;;;1.93;1.13;;;14.00;29.60;;;;;;5031019;28;20416;-67
2023/03/18 02:01:33;;;;;;;2.00;1.20;;;13.80;29.60;;;;;;5029422;28;20492;-67
2023/03/18 02:04:01;;;;;;;2.10;1.33;;;13.80;28.80;;;;;;5029320;28;20446;-66
2023/03/18 02:06:28;;;;;;;2.00;1.20;;;13.80;29.50;;;;;;5028868;28;20439;-67
2023/03/18 02:08:54;;;;;;;2.00;1.20;;;13.70;28.60;;;;;;5030252;28;20448;-66
2023/03/18 02:11:22;;;;;;;2.07;1.20;;;13.80;28.90;;;;;;5030387;28;20522;-67
2023/03/18 02:13:48;;;;;;;2.03;1.50;;;13.40;28.80;;;;;;5030381;28;20434;-67
2023/03/18 02:16:19;;;;;;;2.00;1.20;;;13.70;28.40;;;;;;5028012;28;20433;-66
2023/03/18 02:18:51;;;;;;;2.07;1.20;;;13.90;28.90;;;;;;5024339;28;20490;-67
2023/03/18 02:21:51;;;;;;;2.20;1.33;;;13.50;28.50;;;;;;5031018;28;20442;-67
2023/03/18 02:24:40;;;;;;;2.20;1.37;;;13.80;28.40;;;;;;5008548;28;20425;-66
2023/03/18 02:27:17;;;;;;;2.00;1.20;;;13.50;28.80;;;;;;5014401;28;20466;-67
2023/03/18 02:29:44;;;;;;;2.00;1.10;;;13.20;29.60;;;;;;5029008;28;20522;-67
2023/03/18 02:32:12;;;;;;;2.00;1.20;;;13.30;29.90;;;;;;5030234;28;20445;-67
2023/03/18 02:34:39;;;;;;;2.00;1.10;;;13.20;30.00;;;;;;5030631;28;20413;-67
2023/03/18 02:37:06;;;;;;;2.57;1.43;;;13.20;31.00;;;;;;5028017;28;20862;-66
2023/03/18 02:39:32;;;;;;;2.10;1.20;;;13.30;29.90;;;;;;5015406;28;20865;-66
2023/03/18 02:41:58;;;;;;;2.50;1.53;;;13.40;29.50;;;;;;5034147;28;20447;-67
2023/03/18 02:44:24;;;;;;;2.20;1.33;;;13.50;29.60;;;;;;5034319;28;20418;-66
2023/03/18 02:47:10;;;;;;;2.10;1.30;;;13.40;29.20;;;;;;5027461;28;20266;-66
2023/03/18 02:49:36;;;;;;;2.00;1.20;;;13.60;29.30;;;;;;5033086;28;20938;-67
2023/03/18 02:52:02;;;;;;;2.30;1.40;;;13.20;29.90;;;;;;5032603;28;20442;-66
2023/03/18 02:54:30;;;;;;;2.00;1.20;;;12.80;30.30;;;;;;5023760;28;20448;-66
2023/03/18 02:56:55;;;;;;;2.00;1.20;;;13.20;29.60;;;;;;5032714;28;20467;-66
2023/03/18 02:59:22;;;;;;;1.90;1.10;;;14.80;31.30;;;;;;5032100;28;20431;-67
2023/03/18 03:01:51;;;;;;;2.00;1.30;;;12.90;31.20;;;;;;5033875;28;20311;-66
2023/03/18 03:04:19;;;;;;;2.00;1.20;;;12.50;29.80;;;;;;5033208;28;20439;-66
2023/03/18 03:06:45;;;;;;;3.37;1.80;;;11.70;34.70;;;;;;5032651;28;20506;-67
2023/03/18 03:09:14;;;;;;;2.10;1.30;;;12.30;32.50;;;;;;5030718;28;20441;-66
2023/03/18 03:11:40;;;;;;;2.17;1.37;;;12.70;31.70;;;;;;5032733;28;20442;-66
2023/03/18 03:14:08;;;;;;;2.10;1.40;;;13.00;30.30;;;;;;5024339;28;20465;-66
2023/03/18 03:16:34;;;;;;;4.00;1.93;;;13.10;30.60;;;;;;5031940;28;20463;-66
2023/03/18 03:18:59;;;;;;;2.20;1.30;;;13.10;30.20;;;;;;5032067;28;20458;-66
2023/03/18 03:21:26;;;;;;;2.07;1.30;;;12.60;32.00;;;;;;5032471;28;20442;-66
2023/03/18 03:23:53;;;;;;;2.03;1.30;;;12.50;31.70;;;;;;5033288;28;20614;-66
2023/03/18 03:26:19;;;;;;;3.40;1.43;;;12.10;34.30;;;;;;5032293;28;20431;-67
2023/03/18 03:28:45;;;;;;;2.00;1.20;;;12.50;33.40;;;;;;5023127;28;20505;-67
2023/03/18 03:31:11;;;;;;;1.90;1.10;;;12.20;33.20;;;;;;5032001;28;20435;-66
2023/03/18 03:33:40;;;;;;;2.10;1.30;;;12.50;34.70;;;;;;5033511;28;20477;-66
2023/03/18 03:36:09;;;;;;;2.03;1.23;;;12.70;31.50;;;;;;5028241;28;20184;-67
2023/03/18 03:38:35;;;;;;;2.00;1.20;;;12.80;31.40;;;;;;5031345;28;21093;-67
2023/03/18 03:41:01;;;;;;;3.00;1.77;;;12.50;32.30;;;;;;5030949;28;20498;-66
2023/03/18 03:43:26;;;;;;;2.30;1.30;;;12.70;31.90;;;;;;5032636;28;20272;-66
2023/03/18 03:45:52;;;;;;;2.87;1.40;;;12.40;32.30;;;;;;5033691;28;20411;-66
2023/03/18 03:48:17;;;;;;;2.20;1.40;;;12.50;31.90;;;;;;5031734;28;20205;-66
2023/03/18 03:50:43;;;;;;;2.10;1.40;;;12.60;31.90;;;;;;5018661;28;20185;-67
2023/03/18 03:53:09;;;;;;;2.10;1.30;;;12.20;33.10;;;;;;5032353;28;20893;-66
2023/03/18 03:55:35;;;;;;;2.00;1.20;;;12.30;31.90;;;;;;5033466;28;20256;-65
2023/03/18 03:58:01;;;;;;;2.10;1.20;;;12.10;33.10;;;;;;5032235;28;20499;-67
2023/03/18 04:00:27;;;;;;;2.40;1.53;;;12.40;32.50;;;;;;5031893;28;20462;-67
2023/03/18 04:02:53;;;;;;;2.10;1.30;;;12.50;32.20;;;;;;5029983;28;20178;-67
2023/03/18 04:05:21;;;;;;;1.90;1.10;;;12.60;31.90;;;;;;5033030;28;20248;-67
2023/03/18 04:07:47;;;;;;;2.40;1.53;;;12.70;32.20;;;;;;5032181;28;20938;-67
2023/03/18 04:10:16;;;;;;;2.03;1.20;;;12.70;32.30;;;;;;5031637;28;20438;-68
2023/03/18 04:12:44;;;;;;;2.70;1.67;;;12.50;32.00;;;;;;5030256;28;21051;-68
2023/03/18 04:15:12;;;;;;;2.00;1.30;;;12.50;31.50;;;;;;5032367;28;20466;-67
2023/03/18 04:17:39;;;;;;;2.10;1.27;;;12.60;30.70;;;;;;5023480;28;20467;-69
2023/03/18 04:20:05;;;;;;;2.20;1.40;;;12.40;32.00;;;;;;5030181;28;20449;-69
2023/03/18 04:22:31;;;;;;;2.20;1.50;;;12.40;32.00;;;;;;5031269;28;20953;-66
2023/03/18 04:24:57;;;;;;;2.07;1.23;;;12.30;32.80;;;;;;5031819;28;20420;-67
2023/03/18 04:27:23;;;;;;;2.77;1.77;;;12.50;31.90;;;;;;5031740;28;20993;-66
2023/03/18 04:29:49;;;;;;;1.97;1.20;;;12.40;31.90;;;;;;5031739;28;20180;-66
2023/03/18 04:32:14;;;;;;;2.00;1.20;;;12.50;31.50;;;;;;5031811;28;20444;-67
2023/03/18 04:34:40;;;;;;;2.10;1.30;;;12.40;32.70;;;;;;5013041;28;20234;-69
2023/03/18 04:37:08;;;;;;;2.07;1.30;;;12.10;32.30;;;;;;5030284;28;20692;-66
2023/03/18 04:39:33;;;;;;;2.10;1.30;;;12.00;32.60;;;;;;5014165;28;20180;-66
2023/03/18 04:41:59;;;;;;;3.90;1.77;;;12.50;31.00;;;;;;5031796;28;20438;-67
2023/03/18 04:44:25;;;;;;;2.00;1.20;;;12.60;30.90;;;;;;5030131;28;20640;-69
2023/03/18 04:46:52;;;;;;;2.00;1.20;;;12.90;31.20;;;;;;5030607;28;20206;-66
2023/03/18 04:49:18;;;;;;;2.10;1.30;;;12.40;32.70;;;;;;5031634;28;20272;-66
2023/03/18 04:51:45;;;;;;;2.00;1.20;;;12.30;31.40;;;;;;5032523;28;20475;-66
2023/03/18 04:54:11;;;;;;;2.10;1.30;;;12.40;30.80;;;;;;5029510;28;20838;-69
2023/03/18 04:56:38;;;;;;;2.07;1.30;;;12.50;31.00;;;;;;5023193;28;20517;-66
2023/03/18 04:59:04;;;;;;;2.00;1.27;;;12.70;30.60;;;;;;5030433;28;20789;-67
2023/03/18 05:01:30;;;;;;;2.00;1.40;;;12.50;30.20;;;;;;5029061;28;20416;-66
2023/03/18 05:03:56;;;;;;;1.97;1.13;;;12.50;30.10;;;;;;5030845;28;20435;-67
2023/03/18 05:06:27;;;;;;;2.00;1.20;;;12.50;29.80;;;;;;5029553;28;20443;-67
2023/03/18 05:08:53;;;;;;;1.90;1.15;;;12.40;30.00;;;;;;5028444;28;20184;-66
2023/03/18 05:11:20;;;;;;;2.00;1.20;;;12.20;30.00;;;;;;5029471;28;20195;-66
2023/03/18 05:13:46;;;;;;;2.10;1.33;;;12.50;30.40;;;;;;5030703;28;20578;-69
2023/03/18 05:16:12;;;;;;;2.10;1.27;;;12.20;29.80;;;;;;5029412;28;20953;-67
2023/03/18 05:18:39;;;;;;;1.90;1.10;;;12.10;30.40;;;;;;5030819;28;20449;-69
2023/03/18 05:21:06;;;;;;;2.60;1.30;;;12.20;29.60;;;;;;5030410;28;20644;-66
2023/03/18 05:23:32;;;;;;;2.15;1.25;;;12.20;29.20;;;;;;5031061;28;20930;-66
2023/03/18 05:25:58;;;;;;;2.50;1.70;;;12.00;29.90;;;;;;5029801;28;20184;-72
2023/03/18 05:28:24;;;;;;;2.10;1.20;;;11.90;30.70;;;;;;5029815;28;20216;-68
2023/03/18 05:30:51;;;;;;;2.57;1.57;;;12.00;29.90;;;;;;5029928;28;20207;-66
2023/03/18 05:33:17;;;;;;;2.00;1.20;;;11.80;31.40;;;;;;5011895;28;20442;-66
2023/03/18 05:35:43;;;;;;;2.10;1.37;;;11.60;31.50;;;;;;5014667;28;20842;-66
2023/03/18 05:38:09;;;;;;;2.10;1.30;;;11.70;30.70;;;;;;5026804;28;20493;-65
2023/03/18 05:40:35;;;;;;;2.00;1.10;;;11.90;30.70;;;;;;5031427;28;20168;-69
2023/03/18 05:43:01;;;;;;;1.93;1.10;;;11.90;30.40;;;;;;5030799;28;20893;-66
2023/03/18 05:45:26;;;;;;;2.00;1.10;;;12.00;31.00;;;;;;5012079;28;20489;-66
2023/03/18 05:47:52;;;;;;;2.00;1.10;;;11.50;32.80;;;;;;5029851;28;20699;-68
2023/03/18 05:50:31;;;;;;;2.10;1.20;;;11.50;33.20;;;;;;5030807;28;20618;-65
2023/03/18 05:52:57;;;;;;;2.10;1.20;;;11.50;31.30;;;;;;5031341;28;20411;-66
2023/03/18 05:55:23;;;;;;;2.00;1.20;;;11.70;29.80;;;;;;5027673;28;20291;-65
2023/03/18 05:57:49;;;;;;;2.20;1.40;;;11.80;29.60;;;;;;5029956;28;20287;-65
2023/03/18 06:00:17;;;;;;;2.00;1.10;;;11.90;29.80;;;;;;5028099;28;20251;-68
2023/03/18 06:02:43;;;;;;;2.63;1.80;;;11.80;30.00;;;;;;5026060;28;20656;-68
2023/03/18 06:05:09;;;;;;;2.33;1.23;;;11.60;31.30;;;;;;5031252;28;20181;-67
2023/03/18 06:07:35;;;;;;;2.10;1.23;;;11.80;30.20;;;;;;5028382;28;20410;-66
2023/03/18 06:10:01;;;;;;;2.10;1.20;;;11.60;31.30;;;;;;5031308;28;20502;-67
2023/03/18 06:12:27;;;;;;;2.00;1.20;;;11.50;32.80;;;;;;5030198;28;20434;-66
2023/03/18 06:14:53;;;;;;;3.43;1.43;;;11.50;32.10;;;;;;5035126;28;20172;-66
2023/03/18 06:17:19;;;;;;;2.17;1.30;;;11.60;30.70;;;;;;5032513;28;20538;-66
2023/03/18 06:19:45;;;;;;;2.20;1.20;;;11.90;30.00;;;;;;5017208;28;20197;-67
2023/03/18 06:22:11;;;;;;;2.00;1.20;;;12.10;30.10;;;;;;5031765;28;20177;-66
2023/03/18 06:24:37;;;;;;;2.00;1.10;;;12.10;29.30;;;;;;5031421;28;20492;-68
2023/03/18 06:27:03;;;;;;;2.87;1.80;;;11.80;31.30;;;;;;5033419;28;20239;-66
2023/03/18 06:29:29;;;;;;;2.10;1.20;;;11.40;32.00;;;;;;5032309;28;20660;-67
2023/03/18 06:31:55;;;;;;;3.73;2.17;;;11.30;32.50;;;;;;5034510;28;20184;-68
2023/03/18 06:34:20;;;;;;;2.00;1.10;;;11.30;34.20;;;;;;5032691;28;20527;-67
2023/03/18 06:36:46;;;;;;;2.10;1.20;;;11.70;32.00;;;;;;5034141;28;20611;-67
2023/03/18 06:39:12;;;;;;;2.00;1.10;;;11.80;31.20;;;;;;5032464;28;20188;-68
2023/03/18 06:41:38;;;;;;;2.10;1.20;;;11.60;33.40;;;;;;5033189;28;20194;-68
2023/03/18 06:44:04;;;;;;;2.10;1.20;;;11.50;31.60;;;;;;5033746;28;20422;-69
2023/03/18 06:46:30;;;;;;;2.10;1.30;;;12.40;30.80;;;;;;5034220;28;20426;-70
2023/03/18 06:48:56;;;;;;;2.00;1.10;;;12.30;30.00;;;;;;5032875;28;20439;-68
2023/03/18 06:51:22;;;;;;;2.00;1.20;;;12.30;31.10;;;;;;5032113;28;20778;-70
2023/03/18 06:53:47;;;;;;;2.20;1.30;;;12.40;30.00;;;;;;5031693;28;20663;-67
2023/03/18 06:56:15;;;;;;;2.50;1.60;;;12.50;29.70;;;;;;5025337;28;20177;-67
2023/03/18 06:58:41;;;;;;;2.10;1.30;;;12.60;31.20;;;;;;5030354;28;20583;-70
2023/03/18 07:01:07;;;;;;;2.40;1.57;;;11.90;32.10;;;;;;5032275;28;20515;-70
2023/03/18 07:03:34;;;;;;;4.20;2.13;;;11.20;34.00;;;;;;5032684;28;20493;-66
2023/03/18 07:06:01;;;;;;;2.00;1.20;;;11.30;33.60;;;;;;5027953;28;20497;-67
2023/03/18 07:08:28;;;;;;;2.53;1.60;;;11.70;33.90;;;;;;5026777;28;20458;-68
2023/03/18 07:10:53;;;;;;;2.63;1.70;;;11.70;33.30;;;;;;5034081;28;20488;-66
2023/03/18 07:13:20;;;;;;;3.90;2.17;;;11.90;34.00;;;;;;5012737;28;21384;-66
2023/03/18 07:15:46;;;;;;;1.97;1.20;;;12.00;33.30;;;;;;5032077;28;20212;-67
2023/03/18 07:18:13;;;;;;;1.90;1.10;;;12.20;33.50;;;;;;5031141;28;20547;-66
2023/03/18 07:20:39;;;;;;;2.30;1.30;;;12.40;33.00;;;;;;5032654;28;21185;-65
2023/03/18 07:23:05;;;;;;;1.87;1.20;;;12.80;31.60;;;;;;5033517;28;20449;-73
2023/03/18 07:25:31;;;;;;;2.03;1.30;;;13.00;31.50;;;;;;5033110;28;20439;-72
2023/03/18 07:27:59;;;;;;;2.00;1.30;;;13.40;30.40;;;;;;5030224;28;20976;-67
2023/03/18 07:30:26;;;;;;;1.90;1.20;;;13.50;29.70;;;;;;5033063;28;20197;-66
2023/03/18 07:32:52;;;;;;;1.80;1.10;;;13.10;28.80;;;;;;5033369;28;20823;-66
2023/03/18 07:35:17;;;;;;;2.87;1.50;;;13.00;29.40;;;;;;5015970;28;20469;-67
2023/03/18 07:37:43;;;;;;;1.80;1.23;;;13.40;28.80;;;;;;5015564;28;20499;-68
2023/03/18 07:40:10;;;;;;;2.00;1.20;;;13.70;28.70;;;;;;5033100;28;20184;-68
2023/03/18 07:42:37;;;;;;;1.80;1.20;;;14.10;27.70;;;;;;5029436;28;20443;-74
2023/03/18 07:45:04;;;;;;;1.87;1.30;;;14.10;27.00;;;;;;5010394;28;20437;-68
2023/03/18 07:47:29;;;;;;;3.17;2.10;;;14.10;27.10;;;;;;5012122;28;20467;-70
2023/03/18 07:49:55;;;;;;;3.67;1.70;;;13.80;27.60;;;;;;5028056;28;20534;-68
2023/03/18 07:52:20;;;;;;;1.93;1.27;;;13.40;27.70;;;;;;5029524;28;21472;-68
2023/03/18 07:54:46;;;;;;;1.90;1.30;;;13.40;27.40;;;;;;5031453;28;20270;-68
2023/03/18 07:57:12;;;;;;;1.80;1.10;;;13.70;27.30;;;;;;5031536;28;20242;-69
2023/03/18 07:59:38;;;;;;;1.90;1.30;;;13.80;26.00;;;;;;5030351;28;20222;-71
2023/03/18 08:02:04;;;;;;;2.00;1.40;;;14.10;25.80;;;;;;5027458;28;20962;-74
2023/03/18 08:04:30;;;;;;;2.73;1.70;;;14.20;25.50;;;;;;5027121;28;20568;-71
2023/03/18 08:06:56;;;;;;;1.93;1.50;;;14.30;26.00;;;;;;5024782;28;20461;-68
2023/03/18 08:09:23;;;;;;;1.80;1.20;;;14.20;27.00;;;;;;5028006;28;20906;-70
2023/03/18 08:11:48;;;;;;;1.80;1.23;;;14.20;27.10;;;;;;5028709;28;20441;-67
2023/03/18 08:14:14;;;;;;;1.80;1.20;;;14.50;26.70;;;;;;5028697;28;20982;-72
2023/03/18 08:16:40;;;;;;;2.20;1.50;;;14.30;26.10;;;;;;5028613;28;20248;-68
2023/03/18 08:19:05;;;;;;;1.80;1.30;;;14.50;25.90;;;;;;5028488;28;20231;-66
2023/03/18 08:21:31;;;;;;;1.90;1.30;;;14.60;25.20;;;;;;5009529;28;20191;-71
2023/03/18 08:23:56;;;;;;;2.20;1.47;;;14.80;25.30;;;;;;5022737;28;20604;-67
2023/03/18 08:26:23;;;;;;;2.00;1.20;;;14.90;25.20;;;;;;5025605;28;20175;-70
2023/03/18 08:28:48;;;;;;;2.07;1.50;;;15.10;24.70;;;;;;5027126;28;20680;-69
2023/03/18 08:31:14;;;;;;;2.30;1.53;;;15.10;24.40;;;;;;5027432;28;20439;-66
2023/03/18 08:33:40;;;;;;;2.23;1.43;;;14.90;24.80;;;;;;5025387;28;20269;-66
2023/03/18 08:36:07;;;;;;;1.90;1.20;;;14.70;24.70;;;;;;5026861;28;20192;-66
2023/03/18 08:38:33;;;;;;;2.03;1.37;;;14.70;24.80;;;;;;5031873;28;20530;-68
2023/03/18 08:40:59;;;;;;;2.97;1.50;;;15.00;24.90;;;;;;5032069;28;20948;-66
2023/03/18 08:43:26;;;;;;;2.00;1.30;;;15.30;23.50;;;;;;5022508;28;20424;-66
2023/03/18 08:45:55;;;;;;;1.90;1.30;;;15.40;24.30;;;;;;5018258;28;20584;-66
2023/03/18 08:48:22;;;;;;;1.80;1.20;;;15.60;23.10;;;;;;5031036;28;20462;-68
2023/03/18 08:50:48;;;;;;;2.30;1.50;;;15.50;23.50;;;;;;5031656;28;20419;-66
2023/03/18 08:53:14;;;;;;;2.30;1.40;;;15.90;23.00;;;;;;5030618;28;20450;-66
2023/03/18 08:55:40;;;;;;;1.80;1.10;;;16.10;22.70;;;;;;5030889;28;20468;-66
2023/03/18 08:58:07;;;;;;;1.80;1.10;;;16.00;22.70;;;;;;5029279;28;20298;-66
2023/03/18 09:00:37;;;;;;;2.20;1.40;;;15.60;22.80;;;;;;5031487;28;20415;-66
2023/03/18 09:03:03;;;;;;;1.80;1.13;;;15.50;22.90;;;;;;5031913;28;20408;-67
2023/03/18 09:05:29;;;;;;;2.00;1.33;;;15.60;23.40;;;;;;5030925;28;20420;-66
2023/03/18 09:07:55;;;;;;;1.80;1.13;;;16.30;23.40;;;;;;5029124;28;20966;-67
2023/03/18 09:10:21;;;;;;;1.83;1.20;;;16.80;21.40;;;;;;5028921;28;20450;-72
2023/03/18 09:12:48;;;;;;;2.20;1.47;;;17.10;21.40;;;;;;5031170;28;20427;-68
2023/03/18 09:15:19;;;;;;;2.00;1.27;;;16.40;21.60;;;;;;5026838;28;20182;-68
2023/03/18 09:17:45;;;;;;;2.00;1.30;;;16.10;23.20;;;;;;5030115;28;20487;-67
2023/03/18 09:20:13;;;;;;;2.97;1.67;;;16.90;20.50;;;;;;5016006;28;20424;-67
2023/03/18 09:22:40;;;;;;;1.90;1.23;;;16.40;22.70;;;;;;5027851;28;20447;-67
2023/03/18 09:25:07;;;;;;;1.93;1.30;;;16.50;18.20;;;;;;5017190;28;20525;-67
2023/03/18 09:27:33;;;;;;;2.00;1.23;;;16.30;18.90;;;;;;5026263;28;20451;-67
2023/03/18 09:29:58;;;;;;;1.90;1.30;;;17.00;17.40;;;;;;5027720;28;20441;-67
2023/03/18 09:32:24;;;;;;;1.80;1.17;;;17.10;18.80;;;;;;5027968;28;20823;-68
2023/03/18 09:34:50;;;;;;;1.97;1.33;;;16.80;20.00;;;;;;5030202;28;20199;-67
2023/03/18 09:37:17;;;;;;;1.80;1.20;;;16.90;19.70;;;;;;5030733;28;20499;-67
2023/03/18 09:39:43;;;;;;;3.60;1.53;;;17.10;18.70;;;;;;5012068;28;20427;-67
2023/03/18 09:42:27;;;;;;;2.30;1.40;;;16.90;18.20;;;;;;5030513;28;20434;-67
2023/03/18 09:45:02;;;;;;;1.90;1.20;;;17.10;18.30;;;;;;5023019;28;20867;-68
2023/03/18 09:47:52;;;;;;;2.10;1.30;;;16.70;18.20;;;;;;5029331;28;20865;-68
2023/03/18 09:50:41;;;;;;;2.00;1.30;;;16.90;18.90;;;;;;5022492;28;20419;-67
2023/03/18 09:53:19;;;;;;;1.80;1.10;;;18.00;18.70;;;;;;5026441;28;20907;-69
2023/03/18 09:55:59;;;;;;;2.00;1.30;;;18.90;17.10;;;;;;5024166;28;20437;-68
2023/03/18 09:58:42;;;;;;;2.00;1.20;;;18.80;17.00;;;;;;5031150;28;20982;-68
2023/03/18 10:01:10;;;;;;;2.30;1.43;;;18.30;18.00;;;;;;5029546;28;20445;-67
2023/03/18 10:03:38;;;;;;;2.30;1.50;;;18.50;18.00;;;;;;5030442;28;20469;-67
2023/03/18 10:06:19;;;;;;;2.10;1.23;;;19.00;15.30;;;;;;5025384;28;20869;-67
2023/03/18 10:09:00;;;;;;;2.10;1.23;;;19.20;14.90;;;;;;5026682;28;20680;-68
2023/03/18 10:11:34;;;;;;;2.20;1.20;;;18.20;17.50;;;;;;5029150;28;20543;-67
2023/03/18 10:14:15;;;;;;;2.40;1.37;;;17.70;17.30;;;;;;5025451;28;20906;-68
2023/03/18 10:17:09;;;;;;;2.30;1.20;;;18.00;16.70;;;;;;5029445;28;20426;-67
2023/03/18 10:19:36;;;;;;;2.37;1.30;;;18.50;15.00;;;;;;5027652;28;21020;-68
2023/03/18 10:22:23;;;;;;;2.37;1.30;;;18.90;15.90;;;;;;5030063;28;20440;-67
2023/03/18 10:25:30;;;;;;;2.40;1.27;;;18.10;17.00;;;;;;5022885;28;20439;-68
2023/03/18 10:28:14;;;;;;;2.40;1.20;;;18.40;17.30;;;;;;4961318;28;20474;-68
2023/03/18 10:30:53;;;;;;;2.50;1.30;;;18.90;16.00;;;;;;4953480;28;20943;-68
2023/03/18 10:33:25;;;;;;;2.60;1.30;;;19.10;16.50;;;;;;4964313;28;20450;-68
2023/03/18 10:36:04;;;;;;;2.70;1.40;;;19.20;16.30;;;;;;4960106;28;20547;-68
2023/03/18 10:38:35;;;;;;;2.77;1.27;;;19.70;15.60;;;;;;4964802;28;20486;-68
2023/03/18 10:41:04;;;;;;;2.87;1.30;;;19.00;13.90;;;;;;4961814;28;20430;-68
2023/03/18 10:43:32;;;;;;;2.90;1.30;;;19.70;13.40;;;;;;4958440;28;20449;-68
2023/03/18 10:46:03;;;;;;;2.90;1.23;;;20.10;13.20;;;;;;4963843;28;20582;-68
2023/03/18 10:48:52;;;;;;;2.90;1.20;;;19.90;14.50;;;;;;4950462;28;20444;-68
2023/03/18 10:51:44;;;;;;;3.00;1.40;;;19.70;14.50;;;;;;4958456;28;20423;-68
2023/03/18 10:54:12;;;;;;;3.00;1.20;;;20.40;13.80;;;;;;4963037;28;20807;-68
2023/03/18 10:56:38;;;;;;;3.20;1.30;;;19.80;13.30;;;;;;4957483;28;20877;-68
2023/03/18 10:59:17;;;;;;;3.10;1.30;;;19.90;12.70;;;;;;4971520;28;20418;-69
2023/03/18 11:01:49;;;;;;;3.07;1.30;;;21.00;12.20;;;;;;4966131;28;20419;-68
2023/03/18 11:04:20;;;;;;;3.10;1.40;;;20.60;14.30;;;;;;5014502;28;20434;-68
2023/03/18 11:06:54;;;;;;;3.40;1.53;;;20.70;14.70;;;;;;5029611;28;20432;-68
2023/03/18 11:09:32;;;;;;;3.37;1.40;;;21.60;12.70;;;;;;5025842;28;20427;-69
2023/03/18 11:12:05;;;;;;;3.20;1.20;;;21.60;12.10;;;;;;5017485;28;20474;-69
2023/03/18 11:14:32;;;;;;;3.30;1.17;;;21.50;13.20;;;;;;5033113;28;20431;-69
2023/03/18 11:17:17;;;;;;;3.50;1.43;;;21.90;13.20;;;;;;5033280;28;20466;-69
2023/03/18 11:19:48;;;;;;;3.20;1.10;;;22.30;12.70;;;;;;5026428;28;20415;-69
2023/03/18 11:22:19;;;;;;;4.07;1.20;;;23.10;12.10;;;;;;5032271;28;20513;-71
2023/03/18 11:24:58;;;;;;;3.63;1.30;;;21.80;12.20;;;;;;5021766;28;20482;-68
2023/03/18 11:27:27;;;;;;;3.50;1.40;;;21.60;13.40;;;;;;5031426;28;20985;-69
2023/03/18 11:29:59;;;;;;;3.30;1.10;;;21.80;11.50;;;;;;5031178;28;20808;-68
2023/03/18 11:32:29;;;;;;;3.60;1.30;;;23.20;10.80;;;;;;5033290;28;20438;-69
2023/03/18 11:35:00;;;;;;;3.53;1.20;;;24.50;9.30;;;;;;5028245;28;20396;-71
2023/03/18 11:37:40;;;;;;;3.67;1.30;;;25.00;8.70;;;;;;5017843;28;20837;-69
2023/03/18 11:40:06;;;;;;;4.20;1.40;;;23.80;10.10;;;;;;5031138;28;20833;-69
2023/03/18 11:42:32;;;;;;;3.73;1.23;;;24.10;10.30;;;;;;5033408;28;20411;-69
2023/03/18 11:45:01;;;;;;;3.73;1.20;;;24.90;9.30;;;;;;5033544;28;20173;-69
2023/03/18 11:47:30;;;;;;;3.87;1.23;;;23.50;9.00;;;;;;5033031;28;20207;-69
2023/03/18 11:50:04;;;;;;;3.90;1.10;;;22.90;9.90;;;;;;5031873;28;20470;-69
2023/03/18 11:52:45;;;;;;;4.60;1.20;;;24.00;9.40;;;;;;5032917;28;20438;-69
2023/03/18 11:55:38;;;;;;;4.20;1.30;;;25.40;6.60;;;;;;5033904;28;20422;-69
2023/03/18 11:58:22;;;;;;;4.20;1.30;;;24.90;7.30;;;;;;5032298;28;20477;-69
2023/03/18 12:01:25;;;;;;;4.20;1.13;;;24.40;8.70;;;;;;5027192;28;20918;-68
2023/03/18 12:04:31;;;;;;;4.27;1.20;;;25.60;7.50;;;;;;4950672;28;20517;-69
2023/03/18 12:07:05;;;;;;;4.80;1.30;;;25.30;8.80;;;;;;4943378;29;20570;-69
2023/03/18 12:10:11;;;;;;;4.03;1.13;;;27.50;7.10;;;;;;4950936;28;20446;-69
2023/03/18 12:13:02;;;;;;;5.90;1.57;;;26.40;6.60;;;;;;4951424;29;21065;-69
2023/03/18 12:15:54;;;;;;;3.80;1.10;;;26.20;6.70;;;;;;4951061;29;20793;-70
2023/03/18 12:18:46;;;;;;;4.23;1.30;;;26.20;6.70;;;;;;4950354;29;20542;-70
2023/03/18 12:21:36;;;;;;;4.13;1.10;;;25.40;8.10;;;;;;4952287;29;20434;-69
2023/03/18 12:24:19;;;;;;;4.40;1.30;;;25.90;7.30;;;;;;4942132;28;20477;-70
2023/03/18 12:27:05;;;;;;;4.27;1.27;;;25.40;7.90;;;;;;4952570;28;20419;-69
2023/03/18 12:29:33;;;;;;;4.93;1.40;;;26.10;7.20;;;;;;4951741;29;20816;-70
2023/03/18 12:32:12;;;;;;;4.10;1.23;;;27.10;7.10;;;;;;4945734;29;20447;-71
2023/03/18 12:35:08;;;;;;;3.70;1.03;;;27.00;6.80;;;;;;4950608;29;20434;-69
2023/03/18 12:37:58;;;;;;;3.80;1.20;;;26.80;7.40;;;;;;4951708;28;20480;-70
2023/03/18 12:40:44;;;;;;;3.70;1.10;;;28.60;5.70;;;;;;5022540;28;20435;-69
2023/03/18 12:43:42;;;;;;;3.70;1.20;;;27.00;6.10;;;;;;5031451;28;20895;-69
2023/03/18 12:46:33;;;;;;;4.00;1.20;;;25.60;7.40;;;;;;5026824;28;20431;-69
2023/03/18 12:49:02;;;;;;;4.10;1.13;;;25.90;6.80;;;;;;5024725;28;20497;-69
2023/03/18 12:51:47;;;;;;;3.90;1.20;;;26.80;6.30;;;;;;5031191;28;20466;-69
2023/03/18 12:54:22;;;;;;;3.40;1.20;;;27.00;6.50;;;;;;5030834;28;20442;-69
2023/03/18 12:56:53;;;;;;;2.90;1.10;;;28.60;5.10;;;;;;5028359;28;20945;-69
2023/03/18 12:59:27;;;;;;;2.60;1.00;;;29.80;5.60;;;;;;5028228;28;20518;-69
2023/03/18 13:02:16;;;;;;;2.50;1.00;;;29.50;4.00;;;;;;5029207;28;20431;-70